Time;durP1;ratioP1;P1;durP2;ratioP2;P2;SDS_P1;SDS_P2;PMS_P1;PMS_P2;Temp;Humidity;BMP_temperature;BMP_pressure;BME280_temperature;BME280_humidity;BME280_pressure;Samples;Min_cycle;Max_cycle;Signal;HPM_P1;HPM_P2
2021/04/17 00:01:28;;;;;;;7.72;3.80;;;6.00;94.30;;;;;;5099485;28;20024;-81
2021/04/17 00:03:54;;;;;;;7.93;3.95;;;6.00;94.50;;;;;;5095480;28;20020;-81
2021/04/17 00:06:20;;;;;;;10.18;4.43;;;5.90;94.60;;;;;;5105598;28;20028;-81
2021/04/17 00:08:46;;;;;;;8.32;4.47;;;5.90;94.80;;;;;;5073091;28;20030;-81
2021/04/17 00:11:11;;;;;;;7.45;3.90;;;5.90;94.90;;;;;;5070323;28;20020;-83
2021/04/17 00:13:37;;;;;;;7.93;4.20;;;5.90;94.90;;;;;;5077138;28;20028;-81
2021/04/17 00:16:03;;;;;;;6.22;3.70;;;5.80;94.90;;;;;;5072547;28;20093;-83
2021/04/17 00:18:29;;;;;;;8.30;3.95;;;5.80;95.10;;;;;;5087349;28;20028;-81
2021/04/17 00:20:54;;;;;;;8.30;4.13;;;5.80;95.30;;;;;;5073276;28;20047;-82
2021/04/17 00:23:20;;;;;;;10.20;4.38;;;5.80;95.50;;;;;;5082818;28;20020;-81
2021/04/17 00:25:45;;;;;;;10.02;4.80;;;5.70;95.50;;;;;;5097539;28;20078;-80
2021/04/17 00:28:11;;;;;;;8.50;4.18;;;5.70;95.70;;;;;;5086157;28;20032;-82
2021/04/17 00:30:37;;;;;;;7.30;3.90;;;5.70;95.70;;;;;;5092386;28;20564;-81
2021/04/17 00:33:02;;;;;;;7.88;3.97;;;5.60;95.80;;;;;;5086100;28;20015;-82
2021/04/17 00:35:28;;;;;;;6.53;3.88;;;5.60;95.80;;;;;;5080520;28;20070;-82
2021/04/17 00:37:54;;;;;;;7.70;3.63;;;5.60;95.90;;;;;;5078320;28;20040;-82
2021/04/17 00:40:20;;;;;;;6.70;3.65;;;5.60;96.00;;;;;;5108948;28;20027;-84
2021/04/17 00:42:45;;;;;;;6.00;3.90;;;5.50;96.00;;;;;;5078909;28;20027;-83
2021/04/17 00:45:11;;;;;;;7.68;3.47;;;5.50;96.00;;;;;;5094646;28;20028;-82
2021/04/17 00:47:37;;;;;;;6.68;3.50;;;5.50;96.10;;;;;;5104350;28;20114;-82
2021/04/17 00:50:04;;;;;;;8.77;4.45;;;5.50;96.20;;;;;;5081462;28;20067;-82
2021/04/17 00:52:29;;;;;;;6.70;3.58;;;5.50;96.30;;;;;;5075216;28;20736;-82
2021/04/17 00:54:56;;;;;;;8.32;3.72;;;5.40;96.20;;;;;;5090680;28;20039;-84
2021/04/17 00:57:22;;;;;;;7.63;3.83;;;5.40;96.40;;;;;;5082761;28;20518;-81
2021/04/17 00:59:48;;;;;;;5.82;3.63;;;5.40;96.40;;;;;;5083959;28;20036;-82
2021/04/17 01:02:24;;;;;;;6.45;3.55;;;5.30;96.60;;;;;;5108384;28;20053;-82
2021/04/17 01:04:50;;;;;;;6.97;3.83;;;5.40;96.70;;;;;;5061342;28;20047;-82
2021/04/17 01:07:44;;;;;;;8.40;4.38;;;5.30;96.70;;;;;;5088358;28;20038;-82
2021/04/17 01:10:30;;;;;;;6.57;3.25;;;5.30;96.70;;;;;;5108521;28;20034;-83
2021/04/17 01:12:56;;;;;;;7.32;3.67;;;5.30;96.80;;;;;;5063598;28;20046;-84
2021/04/17 01:15:24;;;;;;;6.93;3.47;;;5.30;97.00;;;;;;5087636;28;20587;-83
2021/04/17 01:17:52;;;;;;;9.00;3.78;;;5.20;97.00;;;;;;5108442;28;20024;-83
2021/04/17 01:20:30;;;;;;;6.40;3.42;;;5.20;96.90;;;;;;5096687;28;20024;-84
2021/04/17 01:23:33;;;;;;;8.88;3.83;;;5.20;97.30;;;;;;5091216;28;20021;-84
2021/04/17 01:26:06;;;;;;;8.20;3.97;;;5.20;97.20;;;;;;5104110;28;20323;-84
2021/04/17 01:28:35;;;;;;;6.38;3.42;;;5.10;97.30;;;;;;5094914;28;20019;-84
2021/04/17 01:31:01;;;;;;;7.32;3.60;;;5.10;97.30;;;;;;5109490;28;20016;-82
2021/04/17 01:33:32;;;;;;;6.95;3.72;;;5.00;97.30;;;;;;5076174;28;20618;-82
2021/04/17 01:36:00;;;;;;;8.63;3.90;;;5.00;97.50;;;;;;5077827;28;20047;-82
2021/04/17 01:38:30;;;;;;;6.53;3.50;;;5.00;97.70;;;;;;5093036;28;20023;-83
2021/04/17 01:41:03;;;;;;;6.00;3.03;;;4.90;97.70;;;;;;5078870;28;20047;-84
2021/04/17 01:43:31;;;;;;;8.68;3.63;;;4.90;97.70;;;;;;5086911;28;20099;-84
2021/04/17 01:46:04;;;;;;;6.63;3.35;;;4.90;97.90;;;;;;5085285;28;20065;-83
2021/04/17 01:48:31;;;;;;;6.47;3.38;;;4.80;98.00;;;;;;5097734;28;20502;-83
2021/04/17 01:50:59;;;;;;;6.75;3.97;;;4.80;98.10;;;;;;5079304;28;20050;-83
2021/04/17 01:53:30;;;;;;;7.45;3.72;;;4.80;98.30;;;;;;5079347;28;20094;-83
2021/04/17 01:55:58;;;;;;;7.07;3.85;;;4.80;98.40;;;;;;5079493;28;20032;-82
2021/04/17 01:58:29;;;;;;;6.43;3.33;;;4.70;98.50;;;;;;5097586;28;20031;-82
2021/04/17 02:00:57;;;;;;;8.10;3.92;;;4.70;98.60;;;;;;5097174;28;20060;-83
2021/04/17 02:03:24;;;;;;;8.57;4.20;;;4.70;98.60;;;;;;5079288;28;20024;-83
2021/04/17 02:05:51;;;;;;;8.38;3.92;;;4.70;98.70;;;;;;5079687;28;20032;-82
2021/04/17 02:08:17;;;;;;;8.00;4.72;;;4.60;98.80;;;;;;5097594;28;20062;-83
2021/04/17 02:10:44;;;;;;;7.18;3.95;;;4.60;98.90;;;;;;5097080;28;20054;-82
2021/04/17 02:13:11;;;;;;;12.85;5.13;;;4.60;99.00;;;;;;5078765;28;20398;-82
2021/04/17 02:15:38;;;;;;;6.93;3.50;;;4.60;99.00;;;;;;5078996;28;20463;-83
2021/04/17 02:18:26;;;;;;;5.50;3.10;;;4.60;99.00;;;;;;5079537;28;20032;-83
2021/04/17 02:21:05;;;;;;;6.50;3.03;;;4.60;99.00;;;;;;5097253;28;20497;-82
2021/04/17 02:23:32;;;;;;;6.68;3.20;;;4.60;99.10;;;;;;5097057;28;20056;-82
2021/04/17 02:25:59;;;;;;;7.13;3.35;;;4.50;99.20;;;;;;5078132;28;20020;-83
2021/04/17 02:28:29;;;;;;;6.82;3.17;;;4.50;99.20;;;;;;5079141;28;20024;-81
2021/04/17 02:30:56;;;;;;;9.40;3.28;;;4.50;99.30;;;;;;5078620;28;20549;-83
2021/04/17 02:33:23;;;;;;;8.80;2.97;;;4.50;99.30;;;;;;5078970;28;20504;-83
2021/04/17 02:35:48;;;;;;;7.55;3.50;;;4.50;99.30;;;;;;5078469;28;20039;-83
2021/04/17 02:38:14;;;;;;;5.15;3.17;;;4.40;99.40;;;;;;5079098;28;20119;-83
2021/04/17 02:40:40;;;;;;;6.85;2.90;;;4.40;99.40;;;;;;5096584;28;20050;-83
2021/04/17 02:43:06;;;;;;;6.53;3.15;;;4.40;99.50;;;;;;5076172;28;20464;-84
2021/04/17 02:45:32;;;;;;;7.57;3.47;;;4.40;99.40;;;;;;5093923;28;20066;-83
2021/04/17 02:47:58;;;;;;;5.57;2.75;;;4.40;99.50;;;;;;5075891;28;20016;-83
2021/04/17 02:50:24;;;;;;;7.63;3.17;;;4.40;99.50;;;;;;5093715;28;20039;-83
2021/04/17 02:52:50;;;;;;;7.65;3.35;;;4.30;99.70;;;;;;5093886;28;20438;-83
2021/04/17 02:55:17;;;;;;;6.68;3.15;;;4.30;99.80;;;;;;5075544;28;20374;-82
2021/04/17 02:57:43;;;;;;;6.47;3.08;;;4.20;99.80;;;;;;5093726;28;20055;-81
2021/04/17 03:00:11;;;;;;;7.28;3.20;;;4.20;99.90;;;;;;5093620;28;20442;-83
2021/04/17 03:02:37;;;;;;;7.35;3.67;;;4.20;99.90;;;;;;5093148;28;20016;-84
2021/04/17 03:05:07;;;;;;;6.85;3.67;;;4.20;99.90;;;;;;5075637;28;20023;-82
2021/04/17 03:07:33;;;;;;;9.13;3.58;;;4.20;99.90;;;;;;5075770;28;20131;-83
2021/04/17 03:09:59;;;;;;;8.00;3.60;;;4.20;99.90;;;;;;5075455;28;20062;-83
2021/04/17 03:12:24;;;;;;;6.32;3.13;;;4.20;99.90;;;;;;5093458;28;20020;-82
2021/04/17 03:14:50;;;;;;;7.80;3.92;;;4.20;99.90;;;;;;5075354;28;20047;-83
2021/04/17 03:17:16;;;;;;;7.25;3.45;;;4.10;99.90;;;;;;5075742;28;20044;-84
2021/04/17 03:19:42;;;;;;;8.05;3.22;;;4.10;99.90;;;;;;5075563;28;20020;-82
2021/04/17 03:22:08;;;;;;;7.45;3.50;;;4.10;99.90;;;;;;5075225;28;20051;-83
2021/04/17 03:24:34;;;;;;;8.05;3.55;;;4.10;99.90;;;;;;5093376;28;20351;-83
2021/04/17 03:27:02;;;;;;;7.75;3.78;;;4.10;99.90;;;;;;5075743;28;20020;-83
2021/04/17 03:29:27;;;;;;;6.43;3.30;;;4.00;99.90;;;;;;5093693;28;20016;-82
2021/04/17 03:31:53;;;;;;;6.32;3.38;;;4.00;99.90;;;;;;5093893;28;20461;-83
2021/04/17 03:34:18;;;;;;;7.68;3.42;;;4.00;99.90;;;;;;5076478;28;20052;-83
2021/04/17 03:36:44;;;;;;;7.32;3.50;;;4.00;99.90;;;;;;5088813;28;20512;-82
2021/04/17 03:39:10;;;;;;;7.72;3.80;;;4.00;99.90;;;;;;5083008;28;20004;-84
2021/04/17 03:41:36;;;;;;;8.90;3.40;;;4.00;99.90;;;;;;5073564;28;20051;-82
2021/04/17 03:44:03;;;;;;;7.50;4.10;;;4.00;99.90;;;;;;5106773;28;20032;-83
2021/04/17 03:46:28;;;;;;;10.50;3.88;;;4.00;99.90;;;;;;5075976;28;20032;-82
2021/04/17 03:48:54;;;;;;;6.60;3.30;;;4.00;99.90;;;;;;5092989;28;20433;-82
2021/04/17 03:51:20;;;;;;;8.38;3.13;;;4.00;99.90;;;;;;5092977;28;20028;-83
2021/04/17 03:53:45;;;;;;;7.07;3.05;;;4.00;99.90;;;;;;5093030;28;20016;-81
2021/04/17 03:56:11;;;;;;;7.30;3.25;;;3.90;99.90;;;;;;5092513;28;20047;-81
2021/04/17 03:58:37;;;;;;;6.30;3.25;;;3.90;99.90;;;;;;5058121;28;20032;-82
2021/04/17 04:01:03;;;;;;;7.80;4.00;;;3.90;99.90;;;;;;5092785;28;20097;-83
2021/04/17 04:03:28;;;;;;;9.68;3.53;;;3.90;99.90;;;;;;5093209;28;20020;-83
2021/04/17 04:05:54;;;;;;;7.05;3.05;;;4.00;99.90;;;;;;5092927;28;20397;-82
2021/04/17 04:08:19;;;;;;;9.30;3.10;;;3.90;99.90;;;;;;5093158;28;20016;-83
2021/04/17 04:10:45;;;;;;;7.63;2.90;;;3.90;99.90;;;;;;5075135;28;20059;-82
2021/04/17 04:13:10;;;;;;;5.57;3.20;;;3.90;99.90;;;;;;5074656;28;20031;-83
2021/04/17 04:15:36;;;;;;;6.07;2.88;;;3.90;99.90;;;;;;5096821;28;20044;-82
2021/04/17 04:18:02;;;;;;;4.82;2.47;;;3.90;99.90;;;;;;5079127;28;20508;-84
2021/04/17 04:20:27;;;;;;;6.22;2.58;;;4.00;99.90;;;;;;5096666;28;20025;-83
2021/04/17 04:22:53;;;;;;;6.05;2.38;;;4.00;99.90;;;;;;5096720;28;20051;-84
2021/04/17 04:25:19;;;;;;;5.10;2.22;;;4.00;99.90;;;;;;5078482;28;20048;-83
2021/04/17 04:27:45;;;;;;;4.88;2.08;;;4.00;99.90;;;;;;5078241;28;20054;-83
2021/04/17 04:30:12;;;;;;;7.60;2.67;;;4.00;99.90;;;;;;5078338;28;20028;-84
2021/04/17 04:32:38;;;;;;;4.85;2.30;;;4.00;99.90;;;;;;5078353;28;20198;-83
2021/04/17 04:35:05;;;;;;;4.57;2.22;;;4.00;99.90;;;;;;5096536;28;20028;-83
2021/04/17 04:37:31;;;;;;;4.40;2.47;;;3.90;99.90;;;;;;5097141;28;20043;-82
2021/04/17 04:39:56;;;;;;;6.20;2.65;;;3.90;99.90;;;;;;5078065;28;20016;-81
2021/04/17 04:42:22;;;;;;;4.78;2.67;;;3.90;99.90;;;;;;5096654;28;20103;-82
2021/04/17 04:44:48;;;;;;;5.05;2.92;;;3.80;99.90;;;;;;5096364;28;20377;-83
2021/04/17 04:47:13;;;;;;;6.60;2.50;;;3.80;99.90;;;;;;5097234;28;20047;-82
2021/04/17 04:49:39;;;;;;;7.07;2.85;;;3.80;99.90;;;;;;5084259;28;20027;-82
2021/04/17 04:52:05;;;;;;;5.30;2.33;;;3.80;99.90;;;;;;5088253;28;20036;-81
2021/04/17 04:54:31;;;;;;;5.28;2.30;;;3.70;99.90;;;;;;5106334;28;20028;-82
2021/04/17 04:56:57;;;;;;;6.70;2.50;;;3.70;99.90;;;;;;5097903;28;20024;-82
2021/04/17 04:59:22;;;;;;;4.68;2.22;;;3.70;99.90;;;;;;5077504;28;20077;-82
2021/04/17 05:01:48;;;;;;;4.60;2.35;;;3.70;99.90;;;;;;5077446;28;20489;-82
2021/04/17 05:04:13;;;;;;;6.18;2.33;;;3.70;99.90;;;;;;5095432;28;20051;-83
2021/04/17 05:06:39;;;;;;;5.03;2.45;;;3.60;99.90;;;;;;5077888;28;20123;-83
2021/04/17 05:09:05;;;;;;;6.57;2.70;;;3.60;99.90;;;;;;5096359;28;20052;-82
2021/04/17 05:11:32;;;;;;;5.78;2.40;;;3.60;99.90;;;;;;5078088;28;20035;-84
2021/04/17 05:13:58;;;;;;;5.32;2.47;;;3.60;99.90;;;;;;5078131;28;20485;-84
2021/04/17 05:16:24;;;;;;;4.72;2.80;;;3.60;99.90;;;;;;5095792;28;20051;-83
2021/04/17 05:18:50;;;;;;;5.07;2.63;;;3.60;99.90;;;;;;5078081;28;20020;-83
2021/04/17 05:21:15;;;;;;;3.95;2.40;;;3.60;99.90;;;;;;5095726;28;20023;-83
2021/04/17 05:23:42;;;;;;;5.60;2.22;;;3.60;99.90;;;;;;5095799;28;20493;-83
2021/04/17 05:26:07;;;;;;;4.90;2.72;;;3.60;99.90;;;;;;5095369;28;20020;-84
2021/04/17 05:28:33;;;;;;;5.28;2.58;;;3.60;99.90;;;;;;5095012;28;20481;-83
2021/04/17 05:30:59;;;;;;;5.53;2.90;;;3.70;99.90;;;;;;5095720;28;20035;-84
2021/04/17 05:33:24;;;;;;;7.05;3.05;;;3.70;99.90;;;;;;5077713;28;20020;-83
2021/04/17 05:35:51;;;;;;;5.90;2.88;;;3.70;99.90;;;;;;5077609;28;20489;-84
2021/04/17 05:38:16;;;;;;;5.60;2.70;;;3.80;99.90;;;;;;5077300;28;20035;-83
2021/04/17 05:40:42;;;;;;;6.30;2.85;;;3.80;99.90;;;;;;5077414;28;20116;-83
2021/04/17 05:43:08;;;;;;;7.05;3.08;;;3.90;99.90;;;;;;5095359;28;20031;-82
2021/04/17 05:45:33;;;;;;;6.38;2.95;;;4.00;99.90;;;;;;5095469;28;20020;-83
2021/04/17 05:47:59;;;;;;;8.32;3.15;;;4.00;99.90;;;;;;5094970;28;20035;-82
2021/04/17 05:50:24;;;;;;;5.45;2.70;;;4.10;99.90;;;;;;5076903;28;20032;-83
2021/04/17 05:52:52;;;;;;;5.80;2.80;;;4.20;99.90;;;;;;5094921;28;20020;-84
2021/04/17 05:55:17;;;;;;;8.68;3.17;;;4.30;99.90;;;;;;5076760;28;20036;-82
2021/04/17 05:57:43;;;;;;;8.55;2.80;;;4.40;99.90;;;;;;5076494;28;20032;-83
2021/04/17 06:00:09;;;;;;;5.57;2.53;;;4.50;99.90;;;;;;5076584;28;20477;-82
2021/04/17 06:02:35;;;;;;;6.68;2.83;;;4.50;99.90;;;;;;5076551;28;20396;-82
2021/04/17 06:05:01;;;;;;;5.68;2.50;;;4.60;99.90;;;;;;5076058;28;20022;-83
2021/04/17 06:07:27;;;;;;;4.90;2.20;;;4.70;99.90;;;;;;5076640;28;20118;-83
2021/04/17 06:09:53;;;;;;;4.38;2.25;;;4.70;99.90;;;;;;5094504;28;20016;-83
2021/04/17 06:12:19;;;;;;;4.20;2.60;;;4.80;99.90;;;;;;5076130;28;20024;-84
2021/04/17 06:14:44;;;;;;;7.65;3.20;;;4.90;99.90;;;;;;5094053;28;20062;-84
2021/04/17 06:17:10;;;;;;;6.53;2.70;;;4.90;99.90;;;;;;5075932;28;20485;-84
2021/04/17 06:19:36;;;;;;;7.13;2.55;;;5.00;99.90;;;;;;5094275;28;20117;-83
2021/04/17 06:22:02;;;;;;;4.82;2.25;;;5.00;99.90;;;;;;5075853;28;20032;-83
2021/04/17 06:24:28;;;;;;;6.13;2.40;;;5.10;99.90;;;;;;5075897;28;20024;-83
2021/04/17 06:26:53;;;;;;;7.45;2.80;;;5.20;99.90;;;;;;5076011;28;20119;-84
2021/04/17 06:29:19;;;;;;;4.90;2.55;;;5.20;99.90;;;;;;5075919;28;20115;-83
2021/04/17 06:31:44;;;;;;;6.18;2.78;;;5.30;99.90;;;;;;5075805;28;20027;-83
2021/04/17 06:34:11;;;;;;;7.40;3.20;;;5.20;99.90;;;;;;5075762;28;20028;-84
2021/04/17 06:36:37;;;;;;;7.78;2.95;;;5.30;99.90;;;;;;5075487;28;20048;-83
2021/04/17 06:39:06;;;;;;;6.15;2.60;;;5.40;99.90;;;;;;5076078;28;20038;-83
2021/04/17 06:41:33;;;;;;;6.18;3.15;;;5.40;99.90;;;;;;5093958;28;20388;-84
2021/04/17 06:44:01;;;;;;;6.97;2.85;;;5.50;99.90;;;;;;5075828;28;20492;-85
2021/04/17 06:46:30;;;;;;;7.35;2.58;;;5.50;99.90;;;;;;5075567;28;20430;-85
2021/04/17 06:48:58;;;;;;;7.28;2.72;;;5.60;99.90;;;;;;5075983;28;20020;-84
2021/04/17 06:51:24;;;;;;;6.15;3.03;;;5.60;99.90;;;;;;5093908;28;20396;-83
2021/04/17 06:53:50;;;;;;;4.70;2.25;;;5.70;99.90;;;;;;5074725;28;20016;-84
2021/04/17 06:56:16;;;;;;;5.97;2.58;;;5.80;99.90;;;;;;5075311;28;20477;-83
2021/04/17 06:58:42;;;;;;;9.57;2.80;;;5.90;99.90;;;;;;5075490;28;20035;-84
2021/04/17 07:01:08;;;;;;;6.43;2.50;;;5.90;99.90;;;;;;5075511;28;20108;-83
2021/04/17 07:03:34;;;;;;;7.65;2.80;;;6.00;99.90;;;;;;5075511;28;20120;-84
2021/04/17 07:06:00;;;;;;;6.50;2.90;;;6.10;99.90;;;;;;5075446;28;20064;-83
2021/04/17 07:08:26;;;;;;;4.80;2.75;;;6.10;99.90;;;;;;5075395;28;20012;-84
2021/04/17 07:10:51;;;;;;;5.85;2.78;;;6.20;99.90;;;;;;5093551;28;20481;-84
2021/04/17 07:13:17;;;;;;;5.00;2.50;;;6.30;99.90;;;;;;5075129;28;20024;-84
2021/04/17 07:15:46;;;;;;;5.85;2.53;;;6.40;99.90;;;;;;5093029;28;20083;-83
2021/04/17 07:18:32;;;;;;;5.03;2.70;;;6.50;99.90;;;;;;5073359;28;20028;-82
2021/04/17 07:21:19;;;;;;;5.43;2.55;;;6.60;99.90;;;;;;5063369;28;20110;-84
2021/04/17 07:23:47;;;;;;;7.63;2.40;;;6.70;99.90;;;;;;5070726;28;20081;-83
2021/04/17 07:26:18;;;;;;;4.75;2.10;;;6.80;99.90;;;;;;5067283;28;20132;-82
2021/04/17 07:28:58;;;;;;;6.72;2.03;;;6.90;99.90;;;;;;5096755;28;20501;-82
2021/04/17 07:31:27;;;;;;;4.07;1.48;;;7.00;99.90;;;;;;5098839;28;20128;-84
2021/04/17 07:33:53;;;;;;;5.18;1.80;;;7.10;99.90;;;;;;5089213;28;20095;-82
2021/04/17 07:36:19;;;;;;;6.05;1.70;;;7.20;99.90;;;;;;5071373;28;20039;-83
2021/04/17 07:38:46;;;;;;;4.45;1.75;;;7.30;99.90;;;;;;5073164;28;20017;-85
2021/04/17 07:41:16;;;;;;;3.97;1.63;;;7.40;99.90;;;;;;5074644;28;20107;-88
2021/04/17 07:43:47;;;;;;;4.47;1.52;;;7.50;99.70;;;;;;5075817;28;20111;-88
2021/04/17 07:46:15;;;;;;;3.65;1.60;;;7.60;99.30;;;;;;5075288;28;20043;-91
2021/04/17 07:48:40;;;;;;;8.27;1.70;;;7.70;98.80;;;;;;5078130;28;20032;-89
2021/04/17 07:51:09;;;;;;;6.53;1.80;;;7.70;98.10;;;;;;5079264;28;20051;-89
2021/04/17 07:53:40;;;;;;;7.13;1.67;;;7.80;97.60;;;;;;5079037;28;20027;-87
2021/04/17 07:56:30;;;;;;;4.95;1.45;;;7.90;97.60;;;;;;5079931;28;20036;-87
2021/04/17 07:59:02;;;;;;;4.00;1.30;;;8.00;97.30;;;;;;5079987;28;20066;-88
2021/04/17 08:01:30;;;;;;;4.93;1.40;;;8.10;97.40;;;;;;5096996;28;20048;-89
2021/04/17 08:03:58;;;;;;;4.93;1.35;;;8.10;96.70;;;;;;5078938;28;20432;-88
2021/04/17 08:06:25;;;;;;;4.40;1.45;;;8.20;96.80;;;;;;5079229;28;20512;-89
2021/04/17 08:08:52;;;;;;;5.03;1.30;;;8.30;96.70;;;;;;5078843;28;20032;-85
2021/04/17 08:11:20;;;;;;;5.05;1.08;;;8.30;96.60;;;;;;5078419;28;20016;-87
2021/04/17 08:13:47;;;;;;;5.13;1.30;;;8.40;96.40;;;;;;5097627;28;20077;-88
2021/04/17 08:16:12;;;;;;;2.72;1.13;;;8.50;96.70;;;;;;5097378;28;20509;-87
2021/04/17 08:18:39;;;;;;;6.45;1.73;;;8.60;96.40;;;;;;5098721;28;20021;-88
2021/04/17 08:21:09;;;;;;;4.85;1.33;;;8.70;95.60;;;;;;5079639;28;20024;-83
2021/04/17 08:23:36;;;;;;;4.43;1.30;;;8.70;95.40;;;;;;5078845;28;20024;-88
2021/04/17 08:26:04;;;;;;;5.93;1.60;;;8.80;95.40;;;;;;5096935;28;20070;-88
2021/04/17 08:28:29;;;;;;;4.70;1.55;;;8.80;94.80;;;;;;5079385;28;20024;-88
2021/04/17 08:31:26;;;;;;;2.80;1.13;;;8.90;94.80;;;;;;5079466;28;20023;-87
2021/04/17 08:34:14;;;;;;;5.38;1.17;;;9.10;94.60;;;;;;5086588;28;20126;-89
2021/04/17 08:36:42;;;;;;;3.08;1.20;;;9.10;93.70;;;;;;5092522;28;20525;-88
2021/04/17 08:39:28;;;;;;;3.75;1.30;;;9.20;93.70;;;;;;5094171;28;20027;-87
2021/04/17 08:41:54;;;;;;;6.50;1.77;;;9.30;93.70;;;;;;5075061;28;20050;-86
2021/04/17 08:44:33;;;;;;;4.07;1.10;;;9.40;93.30;;;;;;5094572;28;20111;-86
2021/04/17 08:47:00;;;;;;;4.13;1.10;;;9.50;92.60;;;;;;5094624;28;20036;-86
2021/04/17 08:49:28;;;;;;;7.35;1.60;;;9.60;92.50;;;;;;5094037;28;20107;-86
2021/04/17 08:52:23;;;;;;;5.28;1.20;;;9.70;92.40;;;;;;5093544;28;20043;-84
2021/04/17 08:55:01;;;;;;;4.15;1.17;;;9.80;92.20;;;;;;5093509;28;20704;-84
2021/04/17 08:57:27;;;;;;;4.65;1.30;;;9.80;91.50;;;;;;5094196;28;20040;-85
2021/04/17 08:59:58;;;;;;;3.88;1.50;;;9.90;91.40;;;;;;5092590;28;20057;-85
2021/04/17 09:02:25;;;;;;;3.78;1.35;;;9.90;91.00;;;;;;5092807;28;20022;-86
2021/04/17 09:05:19;;;;;;;4.55;1.52;;;10.10;90.60;;;;;;5076277;28;20024;-88
2021/04/17 09:07:47;;;;;;;3.67;1.38;;;10.10;90.60;;;;;;5092213;28;20066;-88
2021/04/17 09:10:25;;;;;;;2.95;1.20;;;10.20;90.60;;;;;;5093628;28;20450;-84
2021/04/17 09:13:09;;;;;;;2.88;1.05;;;10.20;90.50;;;;;;5094784;28;20077;-85
2021/04/17 09:15:53;;;;;;;4.88;1.30;;;10.30;90.70;;;;;;5094821;28;20051;-90
2021/04/17 09:21:04;;;;;;;6.38;1.30;;;10.60;89.90;;;;;;5104081;28;20039;-84
2021/04/17 09:23:37;;;;;;;4.15;1.38;;;10.70;89.60;;;;;;5110146;28;20040;-83
2021/04/17 09:26:05;;;;;;;6.35;1.60;;;10.80;88.30;;;;;;5106755;28;20031;-90
2021/04/17 09:28:38;;;;;;;4.20;1.67;;;10.90;89.10;;;;;;5086428;28;20751;-88
2021/04/17 09:31:05;;;;;;;3.17;1.30;;;11.00;88.90;;;;;;5076598;28;20024;-86
2021/04/17 09:33:33;;;;;;;2.13;1.20;;;11.10;89.00;;;;;;5077786;28;20016;-88
2021/04/17 09:35:59;;;;;;;3.38;1.33;;;11.30;88.10;;;;;;5078002;28;20446;-88
2021/04/17 09:38:31;;;;;;;3.45;1.30;;;11.60;89.30;;;;;;5077060;28;20031;-86
2021/04/17 09:40:57;;;;;;;3.28;1.10;;;12.40;88.70;;;;;;5076942;28;20044;-85
2021/04/17 09:43:32;;;;;;;4.65;1.80;;;13.30;87.90;;;;;;5076453;28;20119;-85
2021/04/17 09:46:04;;;;;;;3.40;1.13;;;14.70;84.90;;;;;;5095107;28;20028;-86
2021/04/17 09:48:39;;;;;;;5.20;1.48;;;15.80;83.20;;;;;;5110832;28;20020;-85
2021/04/17 09:51:05;;;;;;;4.53;1.73;;;16.90;81.40;;;;;;5111365;28;20023;-86
2021/04/17 09:53:34;;;;;;;5.65;1.35;;;16.70;76.10;;;;;;5077407;28;20550;-85
2021/04/17 09:56:04;;;;;;;4.93;1.40;;;16.60;76.60;;;;;;5110963;28;20024;-87
2021/04/17 09:58:37;;;;;;;4.78;1.30;;;16.00;74.90;;;;;;5095342;28;20496;-85
2021/04/17 10:01:15;;;;;;;4.18;1.40;;;15.20;76.10;;;;;;5077188;28;20077;-86
2021/04/17 10:03:43;;;;;;;5.20;1.80;;;14.80;77.00;;;;;;5077206;28;20020;-87
2021/04/17 10:06:31;;;;;;;3.92;1.52;;;14.80;76.00;;;;;;5094952;28;20035;-85
2021/04/17 10:09:14;;;;;;;5.55;1.80;;;14.50;74.90;;;;;;5076800;28;20016;-86
2021/04/17 10:11:42;;;;;;;4.82;1.50;;;14.90;74.50;;;;;;5077206;28;20390;-86
2021/04/17 10:14:10;;;;;;;5.90;1.60;;;14.80;74.00;;;;;;5077495;28;20039;-85
2021/04/17 10:16:41;;;;;;;3.67;2.08;;;14.50;74.00;;;;;;5077035;28;20507;-85
2021/04/17 10:19:15;;;;;;;4.68;1.58;;;14.30;74.40;;;;;;5110947;28;20023;-85
2021/04/17 10:21:42;;;;;;;5.95;1.83;;;14.70;74.80;;;;;;5111120;28;20025;-86
2021/04/17 10:24:20;;;;;;;4.78;1.70;;;15.60;73.20;;;;;;5076773;28;20020;-86
2021/04/17 10:26:56;;;;;;;3.60;1.63;;;16.80;70.80;;;;;;5110725;28;20031;-85
2021/04/17 10:29:36;;;;;;;4.40;1.88;;;17.90;69.70;;;;;;5094829;28;20059;-87
2021/04/17 10:32:03;;;;;;;3.97;1.80;;;18.90;66.20;;;;;;5060665;28;20024;-84
2021/04/17 10:34:29;;;;;;;4.68;2.05;;;19.30;64.20;;;;;;5110883;28;20024;-87
2021/04/17 10:36:56;;;;;;;4.82;1.80;;;19.80;62.40;;;;;;5110542;28;20396;-85
2021/04/17 10:39:22;;;;;;;4.85;2.10;;;20.00;61.10;;;;;;5094184;28;20028;-83
2021/04/17 10:41:57;;;;;;;5.07;1.98;;;20.30;61.10;;;;;;5076320;28;20472;-86
2021/04/17 10:44:23;;;;;;;5.45;2.30;;;20.70;59.40;;;;;;5076408;28;20020;-84
2021/04/17 10:46:50;;;;;;;5.22;2.20;;;20.90;56.70;;;;;;5094290;28;20032;-86
2021/04/17 10:49:37;;;;;;;5.25;1.75;;;21.10;57.80;;;;;;5107112;28;20099;-88
2021/04/17 10:52:27;;;;;;;3.45;1.63;;;21.60;57.30;;;;;;5064312;28;20489;-85
2021/04/17 10:54:54;;;;;;;4.32;1.70;;;22.00;56.10;;;;;;5055176;28;20017;-85
2021/04/17 10:57:20;;;;;;;3.47;1.48;;;22.00;55.00;;;;;;5071861;28;20500;-84
2021/04/17 10:59:56;;;;;;;5.60;2.03;;;22.10;55.20;;;;;;5073209;28;20095;-84
2021/04/17 11:02:24;;;;;;;4.72;2.10;;;22.30;53.60;;;;;;5073254;28;20028;-84
2021/04/17 11:04:49;;;;;;;4.93;2.03;;;22.30;53.80;;;;;;5055275;28;20436;-84
2021/04/17 11:07:15;;;;;;;6.20;2.10;;;22.00;53.10;;;;;;5055579;28;20050;-83
2021/04/17 11:09:47;;;;;;;4.85;1.98;;;21.80;53.50;;;;;;5055126;28;20035;-84
2021/04/17 11:12:23;;;;;;;3.35;1.48;;;22.00;53.40;;;;;;5072990;28;20103;-84
2021/04/17 11:14:49;;;;;;;4.82;1.65;;;22.30;53.20;;;;;;5072856;28;20051;-85
2021/04/17 11:17:17;;;;;;;4.70;1.75;;;22.30;52.10;;;;;;5054893;28;20082;-84
2021/04/17 11:19:44;;;;;;;4.60;2.08;;;22.40;51.70;;;;;;5072982;28;20017;-85
2021/04/17 11:22:15;;;;;;;3.97;1.80;;;22.50;51.10;;;;;;5054670;28;20023;-84
2021/04/17 11:25:03;;;;;;;4.35;1.58;;;22.40;50.60;;;;;;5054657;28;20081;-84
2021/04/17 11:27:33;;;;;;;4.95;1.88;;;22.00;51.00;;;;;;5053713;28;20055;-86
2021/04/17 11:30:01;;;;;;;4.38;1.52;;;21.50;51.80;;;;;;5037269;28;20049;-84
2021/04/17 11:32:27;;;;;;;4.32;1.88;;;21.90;52.20;;;;;;5054241;28;20020;-84
2021/04/17 11:34:53;;;;;;;5.03;2.10;;;22.30;50.90;;;;;;5072564;28;20081;-84
2021/04/17 11:37:20;;;;;;;4.40;1.67;;;22.60;50.60;;;;;;5072485;28;20045;-84
2021/04/17 11:39:46;;;;;;;5.95;1.58;;;22.90;50.70;;;;;;5054619;28;20024;-85
2021/04/17 11:42:16;;;;;;;6.75;1.73;;;23.10;49.60;;;;;;5054863;28;20032;-84
2021/04/17 11:44:42;;;;;;;5.03;1.73;;;23.00;50.00;;;;;;5055045;28;20474;-85
2021/04/17 11:47:08;;;;;;;5.97;1.80;;;22.10;50.80;;;;;;5055623;28;20036;-83
2021/04/17 11:49:33;;;;;;;4.82;1.55;;;22.00;51.30;;;;;;5073469;28;20025;-84
2021/04/17 11:51:59;;;;;;;3.70;1.77;;;21.80;51.00;;;;;;5073424;28;20178;-84
2021/04/17 11:54:24;;;;;;;3.45;1.55;;;21.50;51.20;;;;;;5073707;28;20078;-83
2021/04/17 11:56:50;;;;;;;4.60;1.80;;;21.40;52.70;;;;;;5055161;28;20040;-84
2021/04/17 11:59:16;;;;;;;4.13;2.00;;;21.70;52.80;;;;;;5074512;28;20391;-84
2021/04/17 12:01:42;;;;;;;4.72;2.13;;;22.20;51.40;;;;;;5079376;28;20031;-85
2021/04/17 12:04:07;;;;;;;5.28;1.80;;;22.10;50.00;;;;;;5071632;28;20028;-84
2021/04/17 12:06:33;;;;;;;5.40;2.08;;;21.20;50.30;;;;;;5073020;28;20036;-86
2021/04/17 12:08:59;;;;;;;5.15;1.85;;;20.20;50.50;;;;;;5089374;28;20024;-83
2021/04/17 12:11:25;;;;;;;5.47;2.17;;;20.20;51.20;;;;;;5089820;28;20071;-83
2021/04/17 12:13:52;;;;;;;4.82;2.00;;;20.90;50.60;;;;;;5089503;28;20024;-83
2021/04/17 12:16:18;;;;;;;5.22;1.77;;;21.50;49.80;;;;;;5089951;28;20062;-84
2021/04/17 12:18:47;;;;;;;4.72;1.70;;;22.00;49.60;;;;;;5089081;28;20154;-83
2021/04/17 12:21:13;;;;;;;5.70;2.17;;;22.40;48.70;;;;;;5088306;28;20031;-83
2021/04/17 12:23:39;;;;;;;5.32;2.03;;;22.90;48.50;;;;;;5088262;28;20024;-82
2021/04/17 12:26:05;;;;;;;6.55;2.35;;;23.30;47.80;;;;;;5087661;28;20162;-83
2021/04/17 12:28:31;;;;;;;4.18;1.50;;;22.90;46.60;;;;;;5089615;28;20102;-83
2021/04/17 12:30:58;;;;;;;4.38;2.10;;;21.90;47.70;;;;;;5091177;28;20029;-84
2021/04/17 12:33:27;;;;;;;3.53;1.85;;;21.50;47.50;;;;;;5090830;28;20385;-83
2021/04/17 12:35:53;;;;;;;4.43;2.10;;;21.50;48.60;;;;;;5093004;28;20146;-82
2021/04/17 12:38:19;;;;;;;9.82;2.20;;;22.00;48.60;;;;;;5075323;28;20040;-83
2021/04/17 12:40:45;;;;;;;5.40;2.35;;;22.70;48.00;;;;;;5071045;28;20490;-83
2021/04/17 12:43:13;;;;;;;4.85;1.80;;;22.40;47.40;;;;;;5102598;28;20039;-89
2021/04/17 12:45:40;;;;;;;4.28;2.15;;;22.00;48.80;;;;;;5106647;28;20020;-86
2021/04/17 12:48:06;;;;;;;4.53;1.52;;;21.20;49.70;;;;;;5100516;28;20042;-87
2021/04/17 12:50:32;;;;;;;5.95;2.15;;;20.30;50.70;;;;;;5083918;28;20031;-84
2021/04/17 12:52:58;;;;;;;5.47;1.80;;;19.70;51.10;;;;;;5089470;28;20036;-85
2021/04/17 12:55:23;;;;;;;3.97;1.85;;;19.90;52.40;;;;;;5086855;28;20432;-85
2021/04/17 12:57:49;;;;;;;3.97;1.63;;;20.70;52.20;;;;;;5088637;28;20028;-86
2021/04/17 13:00:16;;;;;;;4.65;2.03;;;21.50;52.30;;;;;;5066948;28;20031;-84
2021/04/17 13:02:42;;;;;;;5.32;1.95;;;21.70;51.50;;;;;;5055834;28;20476;-85